createdAt,value
2018-06-17T00:01:26.299Z,8.40
2018-06-17T00:03:56.467Z,8.10
2018-06-17T00:06:26.520Z,7.73
2018-06-17T00:08:56.677Z,7.30
2018-06-17T00:11:26.778Z,7.57
2018-06-17T00:13:56.892Z,7.80
2018-06-17T00:16:27.012Z,7.60
2018-06-17T00:18:57.094Z,7.30
2018-06-17T00:21:27.816Z,7.53
2018-06-17T00:23:57.996Z,7.20
2018-06-17T00:26:28.065Z,8.60
2018-06-17T00:28:58.090Z,7.73
2018-06-17T00:31:28.152Z,7.70
2018-06-17T00:33:58.862Z,7.97
2018-06-17T00:36:28.897Z,7.70
2018-06-17T00:38:59.016Z,8.47
2018-06-17T00:41:29.190Z,8.50
2018-06-17T00:43:59.676Z,8.60
2018-06-17T00:46:29.845Z,8.60
2018-06-17T00:49:00.079Z,9.47
2018-06-17T00:51:30.120Z,9.47
2018-06-17T00:54:00.607Z,9.53
2018-06-17T00:56:30.671Z,9.17
2018-06-17T00:59:00.752Z,9.77
2018-06-17T01:01:30.861Z,9.40
2018-06-17T01:04:00.994Z,8.80
2018-06-17T01:06:31.156Z,9.30
2018-06-17T01:09:01.356Z,8.97
2018-06-17T01:11:31.486Z,10.03
2018-06-17T01:14:02.440Z,10.50
2018-06-17T01:16:32.473Z,9.53
2018-06-17T01:19:02.567Z,9.47
2018-06-17T01:21:32.686Z,9.47
2018-06-17T01:24:03.116Z,9.90
2018-06-17T01:26:33.661Z,9.47
2018-06-17T01:29:03.812Z,9.60
2018-06-17T01:31:33.929Z,9.93
2018-06-17T01:34:04.736Z,9.80
2018-06-17T01:36:34.753Z,10.00
2018-06-17T01:39:07.629Z,9.87
2018-06-17T01:41:37.679Z,9.53
2018-06-17T01:44:07.815Z,9.27
2018-06-17T01:46:38.001Z,8.67
2018-06-17T01:49:08.076Z,9.63
2018-06-17T01:51:38.187Z,8.97
2018-06-17T01:54:08.502Z,8.90
2018-06-17T01:56:38.601Z,9.30
2018-06-17T01:59:08.726Z,9.23
2018-06-17T02:01:38.951Z,9.23
2018-06-17T02:04:14.233Z,9.77
2018-06-17T02:06:49.571Z,9.70
2018-06-17T02:09:24.793Z,9.53
2018-06-17T02:12:01.221Z,9.40
2018-06-17T02:14:36.298Z,9.37
2018-06-17T02:17:06.397Z,9.73
2018-06-17T02:19:36.448Z,8.87
2018-06-17T02:22:06.849Z,10.60
2018-06-17T02:24:37.327Z,10.07
2018-06-17T02:27:07.737Z,10.37
2018-06-17T02:29:37.945Z,10.20
2018-06-17T02:32:08.481Z,10.00
2018-06-17T02:34:38.879Z,10.07
2018-06-17T02:37:09.929Z,10.57
2018-06-17T02:39:40.121Z,10.53
2018-06-17T02:42:10.553Z,10.43
2018-06-17T02:44:40.672Z,10.67
2018-06-17T02:47:15.959Z,10.07
2018-06-17T02:49:48.543Z,10.17
2018-06-17T02:52:24.030Z,10.30
2018-06-17T02:54:54.101Z,10.30
2018-06-17T02:57:24.307Z,9.97
2018-06-17T02:59:54.385Z,9.73
2018-06-17T03:02:24.496Z,10.90
2018-06-17T03:04:54.549Z,10.17
2018-06-17T03:07:24.787Z,10.57
2018-06-17T03:09:54.907Z,10.27
2018-06-17T03:12:25.026Z,10.43
2018-06-17T03:14:55.193Z,10.37
2018-06-17T03:17:25.414Z,9.67
2018-06-17T03:19:56.249Z,10.07
2018-06-17T03:22:26.375Z,10.77
2018-06-17T03:25:01.643Z,10.53
2018-06-17T03:27:37.056Z,9.90
2018-06-17T03:30:12.397Z,10.17
2018-06-17T03:32:47.927Z,10.97
2018-06-17T03:35:23.541Z,10.23
2018-06-17T03:37:53.557Z,10.77
2018-06-17T03:40:23.677Z,11.10
2018-06-17T03:42:53.899Z,10.10
2018-06-17T03:45:24.059Z,10.83
2018-06-17T03:47:54.060Z,10.67
2018-06-17T03:50:24.127Z,9.60
2018-06-17T03:52:54.189Z,9.87
2018-06-17T03:55:24.217Z,10.03
2018-06-17T03:57:54.313Z,10.27
2018-06-17T04:00:24.905Z,10.20
2018-06-17T04:02:55.002Z,11.37
2018-06-17T04:05:28.045Z,10.67
2018-06-17T04:07:59.699Z,10.07
2018-06-17T04:10:29.870Z,10.47
2018-06-17T04:13:00.046Z,11.33
2018-06-17T04:15:30.117Z,9.30
2018-06-17T04:18:00.232Z,10.17
2018-06-17T04:20:31.642Z,10.40
2018-06-17T04:23:01.794Z,10.37
2018-06-17T04:25:32.028Z,9.30
2018-06-17T04:28:02.052Z,9.73
2018-06-17T04:30:32.420Z,10.33
2018-06-17T04:33:02.503Z,11.63
2018-06-17T04:35:32.610Z,10.67
2018-06-17T04:38:02.801Z,10.43
2018-06-17T04:40:32.916Z,9.90
2018-06-17T04:43:03.112Z,9.80
2018-06-17T04:45:33.432Z,9.07
2018-06-17T04:48:03.640Z,9.20
2018-06-17T04:50:35.369Z,9.77
2018-06-17T04:53:05.542Z,9.83
2018-06-17T04:55:35.586Z,8.50
2018-06-17T04:58:05.692Z,9.10
2018-06-17T05:00:35.838Z,9.47
2018-06-17T05:03:05.902Z,10.20
2018-06-17T05:05:36.061Z,9.83
2018-06-17T05:08:06.642Z,10.60
2018-06-17T05:10:36.713Z,9.70
2018-06-17T05:13:07.444Z,10.00
2018-06-17T05:15:37.563Z,9.63
2018-06-17T05:18:07.669Z,9.90
2018-06-17T05:20:37.748Z,9.80
2018-06-17T05:23:07.806Z,9.73
2018-06-17T05:25:38.527Z,10.10
2018-06-17T05:28:08.586Z,10.63
2018-06-17T05:30:39.762Z,9.93
2018-06-17T05:33:10.216Z,9.97
2018-06-17T05:35:40.256Z,14.67
2018-06-17T05:38:10.284Z,14.87
2018-06-17T05:40:40.338Z,12.67
2018-06-17T05:43:10.515Z,10.90
2018-06-17T05:45:40.664Z,9.70
2018-06-17T05:48:10.711Z,9.50
2018-06-17T05:50:40.843Z,9.37
2018-06-17T05:53:10.930Z,8.30
2018-06-17T05:55:41.132Z,6.43
2018-06-17T05:58:11.120Z,6.10
2018-06-17T06:00:41.340Z,9.03
2018-06-17T06:03:11.455Z,11.07
2018-06-17T06:05:41.971Z,9.07
2018-06-17T06:08:12.191Z,7.13
2018-06-17T06:10:42.270Z,8.90
2018-06-17T06:13:12.436Z,8.13
2018-06-17T06:15:43.246Z,7.90
2018-06-17T06:18:13.534Z,6.53
2018-06-17T06:20:43.814Z,7.10
2018-06-17T06:23:13.960Z,6.30
2018-06-17T06:25:44.345Z,7.00
2018-06-17T06:28:14.998Z,6.53
2018-06-17T06:30:45.197Z,6.97
2018-06-17T06:33:15.339Z,6.40
2018-06-17T06:35:45.513Z,6.53
2018-06-17T06:38:15.528Z,7.40
2018-06-17T06:40:45.694Z,7.70
2018-06-17T06:43:15.829Z,7.17
2018-06-17T06:45:45.862Z,7.87
2018-06-17T06:48:16.083Z,7.67
2018-06-17T06:50:46.122Z,7.03
2018-06-17T06:53:16.268Z,6.93
2018-06-17T06:55:46.441Z,7.40
2018-06-17T06:58:16.658Z,6.00
2018-06-17T07:00:47.012Z,5.67
2018-06-17T07:03:33.884Z,6.57
2018-06-17T07:06:20.880Z,5.03
2018-06-17T07:09:07.969Z,5.50
2018-06-17T07:11:38.047Z,5.60
2018-06-17T07:14:08.912Z,5.93
2018-06-17T07:16:56.220Z,4.77
2018-06-17T07:19:26.264Z,4.87
2018-06-17T07:21:56.430Z,4.97
2018-06-17T07:24:26.497Z,3.90
2018-06-17T07:27:13.555Z,5.23
2018-06-17T07:29:47.185Z,5.13
2018-06-17T07:32:17.266Z,5.37
2018-06-17T07:34:47.379Z,4.27
2018-06-17T07:37:17.597Z,5.10
2018-06-17T07:40:52.400Z,4.50
2018-06-17T07:43:22.711Z,4.40
2018-06-17T07:45:53.169Z,4.13
2018-06-17T07:50:17.887Z,3.90
2018-06-17T07:53:05.040Z,3.63
2018-06-17T07:55:35.176Z,3.57
2018-06-17T07:58:05.387Z,4.37
2018-06-17T08:00:36.373Z,4.00
2018-06-17T08:03:06.667Z,4.07
2018-06-17T08:05:36.755Z,4.03
2018-06-17T08:08:06.895Z,3.90
2018-06-17T08:10:36.984Z,3.57
2018-06-17T08:13:07.147Z,3.23
2018-06-17T08:15:37.457Z,3.80
2018-06-17T08:18:07.671Z,3.77
2018-06-17T08:20:37.905Z,3.40
2018-06-17T08:23:08.163Z,4.20
2018-06-17T08:25:38.911Z,3.83
2018-06-17T08:28:09.663Z,3.67
2018-06-17T08:30:39.990Z,3.87
2018-06-17T08:33:10.107Z,4.20
2018-06-17T08:35:40.231Z,4.20
2018-06-17T08:38:10.293Z,3.77
2018-06-17T08:40:40.874Z,4.00
2018-06-17T08:43:10.591Z,4.67
2018-06-17T08:45:40.611Z,4.00
2018-06-17T08:48:10.755Z,5.30
2018-06-17T08:50:40.848Z,4.57
2018-06-17T08:53:11.036Z,4.73
2018-06-17T08:55:41.420Z,4.50
2018-06-17T08:58:11.421Z,4.10
2018-06-17T09:00:41.546Z,4.50
2018-06-17T09:03:11.580Z,4.90
2018-06-17T09:05:41.821Z,4.10
2018-06-17T09:08:11.967Z,4.93
2018-06-17T09:10:42.651Z,5.30
2018-06-17T09:13:13.144Z,4.17
2018-06-17T09:15:43.353Z,4.70
2018-06-17T09:18:13.408Z,4.60
2018-06-17T09:20:43.680Z,4.50
2018-06-17T09:23:13.752Z,5.00
2018-06-17T09:25:44.947Z,4.67
2018-06-17T09:28:14.994Z,4.90
2018-06-17T09:30:45.186Z,5.50
2018-06-17T09:33:15.325Z,5.90
2018-06-17T09:35:45.917Z,5.33
2018-06-17T09:38:16.034Z,5.10
2018-06-17T09:40:49.204Z,4.10
2018-06-17T09:43:19.454Z,5.20
2018-06-17T09:45:49.497Z,4.77
2018-06-17T09:48:19.642Z,5.23
2018-06-17T09:50:49.718Z,5.33
2018-06-17T09:53:19.816Z,4.93
2018-06-17T09:55:50.584Z,4.50
2018-06-17T09:58:21.189Z,4.90
2018-06-17T10:00:51.194Z,5.73
2018-06-17T10:03:21.216Z,4.60
2018-06-17T10:05:51.418Z,4.90
2018-06-17T10:08:21.572Z,4.83
2018-06-17T10:10:56.628Z,5.27
2018-06-17T10:13:29.032Z,4.50
2018-06-17T10:15:59.206Z,4.73
2018-06-17T10:18:30.354Z,3.50
2018-06-17T10:21:00.455Z,3.70
2018-06-17T10:23:30.523Z,3.00
2018-06-17T10:26:01.480Z,4.00
2018-06-17T10:28:32.671Z,3.70
2018-06-17T10:31:04.327Z,3.60
2018-06-17T10:33:36.412Z,3.03
2018-06-17T10:36:06.890Z,3.10
2018-06-17T10:38:37.163Z,3.90
2018-06-17T10:41:07.294Z,3.97
2018-06-17T10:43:37.420Z,3.53
2018-06-17T10:46:07.559Z,3.93
2018-06-17T10:48:37.309Z,3.80
2018-06-17T10:51:07.468Z,3.07
2018-06-17T10:53:37.655Z,3.13
2018-06-17T10:56:07.851Z,3.37
2018-06-17T10:58:37.775Z,4.00
2018-06-17T11:01:07.993Z,3.50
2018-06-17T11:03:38.695Z,3.33
2018-06-17T11:06:08.880Z,3.30
2018-06-17T11:08:38.932Z,3.73
2018-06-17T11:11:09.260Z,3.40
2018-06-17T11:13:39.394Z,3.43
2018-06-17T11:16:09.437Z,2.97
2018-06-17T11:18:39.818Z,3.10
2018-06-17T11:21:09.981Z,3.37
2018-06-17T11:23:40.122Z,3.10
2018-06-17T11:26:10.220Z,4.10
2018-06-17T11:28:40.309Z,3.00
2018-06-17T11:31:10.947Z,3.50
2018-06-17T11:33:41.001Z,2.63
2018-06-17T11:36:11.296Z,3.10
2018-06-17T11:38:41.526Z,2.87
2018-06-17T11:41:11.625Z,2.73
2018-06-17T11:43:41.785Z,2.20
2018-06-17T11:46:11.903Z,2.37
2018-06-17T11:48:42.007Z,2.63
2018-06-17T11:51:12.453Z,3.10
2018-06-17T11:53:42.657Z,2.93
2018-06-17T11:56:12.811Z,3.33
2018-06-17T11:58:43.077Z,2.57
2018-06-17T12:01:13.172Z,3.73
2018-06-17T12:03:43.584Z,2.50
2018-06-17T12:06:13.923Z,2.80
2018-06-17T12:08:44.045Z,3.33
2018-06-17T12:11:14.133Z,3.37
2018-06-17T12:13:43.951Z,3.10
2018-06-17T12:16:13.995Z,3.47
2018-06-17T12:18:44.453Z,2.93
2018-06-17T12:21:14.663Z,3.00
2018-06-17T12:23:44.819Z,2.57
2018-06-17T12:26:15.377Z,2.80
2018-06-17T12:28:45.456Z,5.20
2018-06-17T12:31:15.777Z,4.60
2018-06-17T12:33:46.283Z,3.83
2018-06-17T12:36:16.509Z,3.70
2018-06-17T12:38:46.992Z,3.33
2018-06-17T12:41:17.053Z,4.87
2018-06-17T12:43:47.648Z,4.20
2018-06-17T12:46:17.774Z,3.57
2018-06-17T12:48:47.897Z,4.37
2018-06-17T12:51:18.129Z,3.47
2018-06-17T12:53:48.695Z,3.90
2018-06-17T12:56:18.805Z,4.00
2018-06-17T12:58:48.915Z,3.90
2018-06-17T13:01:19.141Z,3.17
2018-06-17T13:03:49.767Z,3.40
2018-06-17T13:06:19.825Z,3.33
2018-06-17T13:08:49.861Z,3.30
2018-06-17T13:11:20.031Z,3.97
2018-06-17T13:13:50.088Z,3.77
2018-06-17T13:16:20.302Z,3.53
2018-06-17T13:18:50.485Z,3.00
2018-06-17T13:21:20.618Z,2.37
2018-06-17T13:23:51.701Z,2.90
2018-06-17T13:26:21.892Z,4.03
2018-06-17T13:28:51.958Z,3.97
2018-06-17T13:31:22.082Z,3.53
2018-06-17T13:33:52.225Z,3.20
2018-06-17T13:36:22.436Z,2.50
2018-06-17T13:38:52.632Z,3.00
2018-06-17T13:41:22.852Z,2.53
2018-06-17T13:43:53.310Z,3.13
2018-06-17T13:46:23.867Z,2.47
2018-06-17T13:48:54.090Z,2.67
2018-06-17T13:51:24.232Z,2.90
2018-06-17T13:53:54.456Z,2.53
2018-06-17T13:56:25.168Z,3.07
2018-06-17T13:58:55.228Z,2.90
2018-06-17T14:01:26.527Z,2.60
2018-06-17T14:03:57.047Z,3.03
2018-06-17T14:06:27.158Z,3.23
2018-06-17T14:08:57.135Z,3.97
2018-06-17T14:11:31.451Z,2.90
2018-06-17T14:14:02.715Z,2.27
2018-06-17T14:16:32.858Z,4.07
2018-06-17T14:19:02.928Z,3.93
2018-06-17T14:21:33.081Z,3.33
2018-06-17T14:24:03.086Z,2.67
2018-06-17T14:26:33.128Z,2.50
2018-06-17T14:29:03.188Z,2.00
2018-06-17T14:31:33.236Z,2.17
2018-06-17T14:34:03.304Z,2.00
2018-06-17T14:36:33.348Z,3.03
2018-06-17T14:39:04.376Z,2.10
2018-06-17T14:41:34.509Z,2.20
2018-06-17T14:44:09.908Z,2.40
2018-06-17T14:46:45.868Z,2.63
2018-06-17T14:49:21.148Z,2.20
2018-06-17T14:51:51.845Z,2.90
2018-06-17T14:54:21.936Z,3.10
2018-06-17T14:56:52.013Z,3.57
2018-06-17T14:59:22.235Z,4.67
2018-06-17T15:01:52.292Z,2.70
2018-06-17T15:04:22.413Z,2.70
2018-06-17T15:06:52.439Z,1.90
2018-06-17T15:09:22.464Z,2.10
2018-06-17T15:11:52.564Z,1.80
2018-06-17T15:14:22.960Z,1.73
2018-06-17T15:16:53.121Z,1.63
2018-06-17T15:19:23.230Z,1.87
2018-06-17T15:21:53.257Z,1.83
2018-06-17T15:24:23.813Z,1.73
2018-06-17T15:26:53.954Z,2.00
2018-06-17T15:29:24.047Z,1.87
2018-06-17T15:33:01.814Z,1.50
2018-06-17T15:35:37.207Z,1.77
2018-06-17T15:38:12.388Z,1.67
2018-06-17T15:40:47.500Z,1.50
2018-06-17T15:43:17.461Z,1.70
2018-06-17T15:45:47.599Z,1.80
2018-06-17T15:48:18.415Z,2.13
2018-06-17T15:50:49.507Z,2.50
2018-06-17T15:53:19.866Z,2.50
2018-06-17T15:55:49.974Z,2.10
2018-06-17T15:58:20.069Z,1.90
2018-06-17T16:00:50.263Z,1.90
2018-06-17T16:03:20.467Z,1.70
2018-06-17T16:05:51.113Z,1.70
2018-06-17T16:08:21.241Z,1.67
2018-06-17T16:10:51.523Z,1.80
2018-06-17T16:13:26.771Z,2.17
2018-06-17T16:16:02.120Z,1.80
2018-06-17T16:18:37.333Z,1.50
2018-06-17T16:21:08.589Z,1.80
2018-06-17T16:23:38.769Z,1.50
2018-06-17T16:26:08.852Z,1.40
2018-06-17T16:28:39.647Z,2.20
2018-06-17T16:31:09.975Z,1.50
2018-06-17T16:33:40.536Z,1.73
2018-06-17T16:36:10.609Z,1.90
2018-06-17T16:38:40.701Z,1.30
2018-06-17T16:41:10.851Z,1.57
2018-06-17T16:43:41.082Z,2.20
2018-06-17T16:46:11.287Z,1.77
2018-06-17T16:48:41.373Z,1.87
2018-06-17T16:52:16.415Z,1.60
2018-06-17T16:54:51.817Z,2.00
2018-06-17T16:57:27.255Z,1.80
2018-06-17T17:00:00.552Z,1.63
2018-06-17T17:02:30.617Z,1.50
2018-06-17T17:05:00.779Z,1.50
2018-06-17T17:07:31.048Z,1.97
2018-06-17T17:10:01.284Z,1.63
2018-06-17T17:12:32.657Z,2.13
2018-06-17T17:15:02.829Z,1.93
2018-06-17T17:17:33.332Z,2.00
2018-06-17T17:20:03.582Z,2.17
2018-06-17T17:22:34.527Z,1.60
2018-06-17T17:25:04.895Z,1.83
2018-06-17T17:27:35.095Z,2.40
2018-06-17T17:30:05.564Z,2.40
2018-06-17T17:32:40.982Z,2.60
2018-06-17T17:35:16.272Z,2.83
2018-06-17T17:37:52.375Z,2.80
2018-06-17T17:40:27.644Z,2.60
2018-06-17T17:42:57.714Z,2.87
2018-06-17T17:45:32.002Z,2.33
2018-06-17T17:48:02.173Z,2.00
2018-06-17T17:50:32.251Z,1.90
2018-06-17T17:53:02.358Z,2.00
2018-06-17T17:55:32.582Z,1.80
2018-06-17T17:58:03.078Z,2.43
2018-06-17T18:00:35.398Z,2.50
2018-06-17T18:03:05.520Z,1.77
2018-06-17T18:05:35.777Z,1.80
2018-06-17T18:08:05.893Z,1.73
2018-06-17T18:10:36.770Z,2.10
2018-06-17T18:13:06.941Z,1.70
2018-06-17T18:15:37.728Z,2.07
2018-06-17T18:18:07.892Z,2.10
2018-06-17T18:20:38.169Z,1.93
2018-06-17T18:23:08.846Z,1.87
2018-06-17T18:25:44.346Z,1.40
2018-06-17T18:28:19.458Z,1.40
2018-06-17T18:30:56.659Z,1.50
2018-06-17T18:33:32.012Z,1.60
2018-06-17T18:36:07.577Z,1.60
2018-06-17T18:38:39.414Z,2.20
2018-06-17T18:41:10.262Z,1.70
2018-06-17T18:43:41.743Z,1.87
2018-06-17T18:46:12.906Z,1.80
2018-06-17T18:48:43.058Z,2.00
2018-06-17T18:51:13.145Z,1.80
2018-06-17T18:53:43.397Z,2.30
2018-06-17T18:56:13.577Z,1.90
2018-06-17T18:58:43.647Z,1.97
2018-06-17T19:01:13.881Z,1.63
2018-06-17T19:03:44.295Z,1.60
2018-06-17T19:06:14.565Z,1.90
2018-06-17T19:08:49.995Z,1.90
2018-06-17T19:11:25.450Z,2.00
2018-06-17T19:14:01.579Z,2.00
2018-06-17T19:16:37.080Z,2.10
2018-06-17T19:19:07.275Z,1.97
2018-06-17T19:21:37.402Z,2.30
2018-06-17T19:24:08.485Z,1.57
2018-06-17T19:26:38.761Z,1.60
2018-06-17T19:29:08.987Z,1.60
2018-06-17T19:31:39.870Z,1.80
2018-06-17T19:34:10.090Z,2.00
2018-06-17T19:36:40.726Z,2.00
2018-06-17T19:39:11.939Z,1.80
2018-06-17T19:41:42.169Z,1.90
2018-06-17T19:44:13.888Z,2.30
2018-06-17T19:46:44.102Z,2.80
2018-06-17T19:49:14.319Z,2.07
2018-06-17T19:51:49.591Z,1.70
2018-06-17T19:54:24.989Z,1.50
2018-06-17T19:57:00.222Z,1.50
2018-06-17T19:59:36.405Z,1.40
2018-06-17T20:02:06.629Z,2.00
2018-06-17T20:04:36.792Z,1.90
2018-06-17T20:07:07.138Z,1.70
2018-06-17T20:09:37.204Z,1.60
2018-06-17T20:12:07.373Z,1.80
2018-06-17T20:14:37.383Z,1.63
2018-06-17T20:17:07.581Z,1.60
2018-06-17T20:19:37.844Z,1.80
2018-06-17T20:22:07.992Z,1.93
2018-06-17T20:24:37.989Z,1.70
2018-06-17T20:27:08.198Z,1.83
2018-06-17T20:29:38.460Z,1.40
2018-06-17T20:32:13.827Z,1.63
2018-06-17T20:34:49.240Z,1.90
2018-06-17T20:37:24.523Z,1.63
2018-06-17T20:39:59.965Z,1.60
2018-06-17T20:42:35.145Z,2.00
2018-06-17T20:45:05.579Z,1.47
2018-06-17T20:47:35.611Z,1.90
2018-06-17T20:50:05.879Z,1.80
2018-06-17T20:52:36.042Z,1.90
2018-06-17T20:55:06.517Z,2.00
2018-06-17T20:57:36.623Z,1.50
2018-06-17T21:00:07.319Z,1.93
2018-06-17T21:02:37.488Z,1.97
2018-06-17T21:05:07.591Z,2.03
2018-06-17T21:07:37.636Z,1.97
2018-06-17T21:10:08.154Z,2.10
2018-06-17T21:12:38.297Z,1.93
2018-06-17T21:15:13.706Z,1.90
2018-06-17T21:17:43.870Z,1.90
2018-06-17T21:20:19.335Z,2.10
2018-06-17T21:22:54.844Z,2.30
2018-06-17T21:25:31.300Z,2.33
2018-06-17T21:28:02.638Z,2.10
2018-06-17T21:30:32.794Z,1.90
2018-06-17T21:33:02.912Z,1.93
2018-06-17T21:35:33.106Z,1.87
2018-06-17T21:38:03.202Z,2.10
2018-06-17T21:40:33.300Z,1.87
2018-06-17T21:43:03.696Z,1.83
2018-06-17T21:45:33.734Z,1.80
2018-06-17T21:48:03.962Z,1.73
2018-06-17T21:50:34.540Z,2.10
2018-06-17T21:53:04.798Z,2.07
2018-06-17T21:55:35.809Z,1.70
2018-06-17T21:58:05.946Z,1.87
2018-06-17T22:00:36.062Z,2.23
2018-06-17T22:03:06.314Z,2.07
2018-06-17T22:05:36.381Z,2.23
2018-06-17T22:08:11.826Z,1.90
2018-06-17T22:10:47.131Z,1.97
2018-06-17T22:13:17.212Z,1.87
2018-06-17T22:16:56.270Z,1.80
2018-06-17T22:19:26.411Z,1.80
2018-06-17T22:21:56.609Z,2.00
2018-06-17T22:24:26.720Z,1.50
2018-06-17T22:26:56.774Z,1.57
2018-06-17T22:29:26.940Z,1.80
2018-06-17T22:31:57.157Z,1.53
2018-06-17T22:34:27.325Z,1.63
2018-06-17T22:36:58.004Z,1.63
2018-06-17T22:39:28.178Z,1.73
2018-06-17T22:41:58.344Z,1.93
2018-06-17T22:44:28.425Z,2.07
2018-06-17T22:46:59.040Z,2.20
2018-06-17T22:49:29.186Z,2.33
2018-06-17T22:51:59.769Z,2.23
2018-06-17T22:54:51.925Z,1.97
2018-06-17T22:57:27.286Z,2.20
2018-06-17T23:00:02.733Z,2.20
2018-06-17T23:02:38.087Z,1.97
2018-06-17T23:06:16.983Z,1.90
2018-06-17T23:08:52.155Z,1.80
2018-06-17T23:11:22.247Z,2.13
2018-06-17T23:13:53.069Z,2.47
2018-06-17T23:16:23.681Z,2.60
2018-06-17T23:18:54.276Z,2.30
2018-06-17T23:21:24.345Z,1.90
2018-06-17T23:23:54.429Z,2.37
2018-06-17T23:26:24.595Z,2.30
2018-06-17T23:28:54.648Z,1.97
2018-06-17T23:31:25.639Z,2.17
2018-06-17T23:33:56.947Z,1.93
2018-06-17T23:36:27.049Z,2.40
2018-06-17T23:38:57.086Z,2.40
2018-06-17T23:41:27.213Z,2.30
2018-06-17T23:43:58.343Z,2.40
2018-06-17T23:46:34.327Z,2.80
2018-06-17T23:49:09.631Z,2.60
2018-06-17T23:51:45.035Z,2.33
2018-06-17T23:54:20.469Z,3.07
2018-06-17T23:56:50.539Z,2.60
2018-06-17T23:59:20.629Z,2.60
